sensor_id;sensor_type;location;lat;lon;timestamp;P1;durP1;ratioP1;P2;durP2;ratioP2
38851;SDS011;24605;50.092;9.182;2023-07-13T00:01:29;3.35;;;1.15;;
38851;SDS011;24605;50.092;9.182;2023-07-13T00:03:59;5.65;;;1.35;;
38851;SDS011;24605;50.092;9.182;2023-07-13T00:06:26;4.43;;;1.20;;
38851;SDS011;24605;50.092;9.182;2023-07-13T00:08:55;4.30;;;1.13;;
38851;SDS011;24605;50.092;9.182;2023-07-13T00:11:21;10.30;;;1.35;;
38851;SDS011;24605;50.092;9.182;2023-07-13T00:13:48;4.97;;;1.20;;
38851;SDS011;24605;50.092;9.182;2023-07-13T00:16:14;6.00;;;1.30;;
38851;SDS011;24605;50.092;9.182;2023-07-13T00:18:41;4.68;;;1.10;;
38851;SDS011;24605;50.092;9.182;2023-07-13T00:21:08;3.50;;;1.13;;
38851;SDS011;24605;50.092;9.182;2023-07-13T00:23:35;4.53;;;1.10;;
38851;SDS011;24605;50.092;9.182;2023-07-13T00:26:05;5.97;;;1.10;;
38851;SDS011;24605;50.092;9.182;2023-07-13T00:28:33;2.70;;;0.80;;
38851;SDS011;24605;50.092;9.182;2023-07-13T00:31:00;5.43;;;1.00;;
38851;SDS011;24605;50.092;9.182;2023-07-13T00:33:27;5.55;;;1.02;;
38851;SDS011;24605;50.092;9.182;2023-07-13T00:35:53;3.58;;;1.30;;
38851;SDS011;24605;50.092;9.182;2023-07-13T00:38:22;4.63;;;1.08;;
38851;SDS011;24605;50.092;9.182;2023-07-13T00:40:49;5.32;;;1.02;;
38851;SDS011;24605;50.092;9.182;2023-07-13T00:43:16;5.35;;;1.10;;
38851;SDS011;24605;50.092;9.182;2023-07-13T00:48:40;6.88;;;1.33;;
38851;SDS011;24605;50.092;9.182;2023-07-13T00:51:09;4.90;;;0.88;;
38851;SDS011;24605;50.092;9.182;2023-07-13T00:53:39;4.28;;;0.98;;
38851;SDS011;24605;50.092;9.182;2023-07-13T00:56:06;4.88;;;1.00;;
38851;SDS011;24605;50.092;9.182;2023-07-13T00:58:32;8.60;;;1.55;;
38851;SDS011;24605;50.092;9.182;2023-07-13T01:01:00;4.15;;;1.20;;
38851;SDS011;24605;50.092;9.182;2023-07-13T01:03:26;4.13;;;0.80;;
38851;SDS011;24605;50.092;9.182;2023-07-13T01:05:54;5.07;;;1.02;;
38851;SDS011;24605;50.092;9.182;2023-07-13T01:08:21;5.25;;;1.00;;
38851;SDS011;24605;50.092;9.182;2023-07-13T01:10:53;4.38;;;1.13;;
38851;SDS011;24605;50.092;9.182;2023-07-13T01:13:20;5.70;;;1.10;;
38851;SDS011;24605;50.092;9.182;2023-07-13T01:15:49;5.55;;;1.00;;
38851;SDS011;24605;50.092;9.182;2023-07-13T01:18:18;6.43;;;1.20;;
38851;SDS011;24605;50.092;9.182;2023-07-13T01:20:50;3.55;;;1.25;;
38851;SDS011;24605;50.092;9.182;2023-07-13T01:23:17;4.25;;;1.13;;
38851;SDS011;24605;50.092;9.182;2023-07-13T01:25:44;5.60;;;1.05;;
38851;SDS011;24605;50.092;9.182;2023-07-13T01:28:11;6.80;;;1.27;;
38851;SDS011;24605;50.092;9.182;2023-07-13T01:30:38;5.75;;;1.27;;
38851;SDS011;24605;50.092;9.182;2023-07-13T01:33:05;3.78;;;1.17;;
38851;SDS011;24605;50.092;9.182;2023-07-13T01:35:32;4.32;;;1.15;;
38851;SDS011;24605;50.092;9.182;2023-07-13T01:38:00;3.15;;;1.20;;
38851;SDS011;24605;50.092;9.182;2023-07-13T01:40:28;4.47;;;1.10;;
38851;SDS011;24605;50.092;9.182;2023-07-13T01:42:55;5.70;;;1.30;;
38851;SDS011;24605;50.092;9.182;2023-07-13T01:45:22;3.70;;;1.25;;
38851;SDS011;24605;50.092;9.182;2023-07-13T01:47:48;4.25;;;1.25;;
38851;SDS011;24605;50.092;9.182;2023-07-13T01:50:15;3.38;;;1.13;;
38851;SDS011;24605;50.092;9.182;2023-07-13T01:52:41;3.05;;;1.05;;
38851;SDS011;24605;50.092;9.182;2023-07-13T01:55:09;4.22;;;1.10;;
38851;SDS011;24605;50.092;9.182;2023-07-13T01:57:36;4.78;;;1.00;;
38851;SDS011;24605;50.092;9.182;2023-07-13T02:00:03;4.85;;;1.10;;
38851;SDS011;24605;50.092;9.182;2023-07-13T02:02:31;4.63;;;1.00;;
38851;SDS011;24605;50.092;9.182;2023-07-13T02:04:58;5.65;;;1.30;;
38851;SDS011;24605;50.092;9.182;2023-07-13T02:07:24;4.38;;;1.10;;
38851;SDS011;24605;50.092;9.182;2023-07-13T02:09:51;4.78;;;1.00;;
38851;SDS011;24605;50.092;9.182;2023-07-13T02:12:18;3.67;;;1.20;;
38851;SDS011;24605;50.092;9.182;2023-07-13T02:14:45;4.35;;;1.08;;
38851;SDS011;24605;50.092;9.182;2023-07-13T02:17:11;5.50;;;1.27;;
38851;SDS011;24605;50.092;9.182;2023-07-13T02:19:38;5.82;;;1.38;;
38851;SDS011;24605;50.092;9.182;2023-07-13T02:22:04;8.57;;;1.10;;
38851;SDS011;24605;50.092;9.182;2023-07-13T02:24:31;7.25;;;1.33;;
38851;SDS011;24605;50.092;9.182;2023-07-13T02:26:58;6.65;;;1.20;;
38851;SDS011;24605;50.092;9.182;2023-07-13T02:29:26;6.45;;;1.20;;
38851;SDS011;24605;50.092;9.182;2023-07-13T02:31:52;6.97;;;1.15;;
38851;SDS011;24605;50.092;9.182;2023-07-13T02:34:19;6.13;;;1.30;;
38851;SDS011;24605;50.092;9.182;2023-07-13T02:36:45;5.95;;;1.30;;
38851;SDS011;24605;50.092;9.182;2023-07-13T02:39:14;6.78;;;1.08;;
38851;SDS011;24605;50.092;9.182;2023-07-13T02:41:40;4.25;;;1.35;;
38851;SDS011;24605;50.092;9.182;2023-07-13T02:44:07;5.43;;;1.20;;
38851;SDS011;24605;50.092;9.182;2023-07-13T02:46:36;5.55;;;1.33;;
38851;SDS011;24605;50.092;9.182;2023-07-13T02:49:03;4.65;;;0.93;;
38851;SDS011;24605;50.092;9.182;2023-07-13T02:51:30;5.18;;;1.23;;
38851;SDS011;24605;50.092;9.182;2023-07-13T02:53:58;6.38;;;1.20;;
38851;SDS011;24605;50.092;9.182;2023-07-13T02:56:25;5.53;;;1.20;;
38851;SDS011;24605;50.092;9.182;2023-07-13T02:58:53;5.25;;;1.27;;
38851;SDS011;24605;50.092;9.182;2023-07-13T03:01:20;5.43;;;1.20;;
38851;SDS011;24605;50.092;9.182;2023-07-13T03:03:48;7.60;;;1.55;;
38851;SDS011;24605;50.092;9.182;2023-07-13T03:06:15;5.88;;;1.70;;
38851;SDS011;24605;50.092;9.182;2023-07-13T03:08:43;7.35;;;1.35;;
38851;SDS011;24605;50.092;9.182;2023-07-13T03:11:10;3.33;;;1.00;;
38851;SDS011;24605;50.092;9.182;2023-07-13T03:13:39;4.05;;;1.10;;
38851;SDS011;24605;50.092;9.182;2023-07-13T03:16:07;4.82;;;1.20;;
38851;SDS011;24605;50.092;9.182;2023-07-13T03:18:35;3.47;;;0.95;;
38851;SDS011;24605;50.092;9.182;2023-07-13T03:21:03;4.53;;;1.23;;
38851;SDS011;24605;50.092;9.182;2023-07-13T03:23:30;4.88;;;1.15;;
38851;SDS011;24605;50.092;9.182;2023-07-13T03:26:01;3.97;;;0.88;;
38851;SDS011;24605;50.092;9.182;2023-07-13T03:28:29;3.15;;;0.95;;
38851;SDS011;24605;50.092;9.182;2023-07-13T03:30:59;4.55;;;1.15;;
38851;SDS011;24605;50.092;9.182;2023-07-13T03:33:26;6.25;;;1.15;;
38851;SDS011;24605;50.092;9.182;2023-07-13T03:35:53;8.93;;;1.58;;
38851;SDS011;24605;50.092;9.182;2023-07-13T03:38:21;5.78;;;1.33;;
38851;SDS011;24605;50.092;9.182;2023-07-13T03:40:47;6.15;;;1.20;;
38851;SDS011;24605;50.092;9.182;2023-07-13T03:43:14;5.95;;;1.00;;
38851;SDS011;24605;50.092;9.182;2023-07-13T03:45:40;4.38;;;0.95;;
38851;SDS011;24605;50.092;9.182;2023-07-13T03:48:07;4.25;;;0.88;;
38851;SDS011;24605;50.092;9.182;2023-07-13T03:50:33;4.13;;;1.05;;
38851;SDS011;24605;50.092;9.182;2023-07-13T03:53:00;4.13;;;1.10;;
38851;SDS011;24605;50.092;9.182;2023-07-13T03:55:28;8.32;;;1.52;;
38851;SDS011;24605;50.092;9.182;2023-07-13T03:57:57;3.50;;;1.00;;
38851;SDS011;24605;50.092;9.182;2023-07-13T04:00:25;5.93;;;1.23;;
38851;SDS011;24605;50.092;9.182;2023-07-13T04:02:52;1.83;;;0.70;;
38851;SDS011;24605;50.092;9.182;2023-07-13T04:05:19;5.75;;;1.35;;
38851;SDS011;24605;50.092;9.182;2023-07-13T04:07:45;3.38;;;0.93;;
38851;SDS011;24605;50.092;9.182;2023-07-13T04:10:12;6.63;;;1.23;;
38851;SDS011;24605;50.092;9.182;2023-07-13T04:12:40;3.80;;;1.10;;
38851;SDS011;24605;50.092;9.182;2023-07-13T04:15:07;5.43;;;1.15;;
38851;SDS011;24605;50.092;9.182;2023-07-13T04:17:34;3.05;;;0.90;;
38851;SDS011;24605;50.092;9.182;2023-07-13T04:20:00;5.03;;;1.27;;
38851;SDS011;24605;50.092;9.182;2023-07-13T04:22:27;3.05;;;0.98;;
38851;SDS011;24605;50.092;9.182;2023-07-13T04:24:53;5.00;;;1.20;;
38851;SDS011;24605;50.092;9.182;2023-07-13T04:27:20;5.75;;;1.20;;
38851;SDS011;24605;50.092;9.182;2023-07-13T04:29:48;7.57;;;1.30;;
38851;SDS011;24605;50.092;9.182;2023-07-13T04:32:14;5.90;;;1.00;;
38851;SDS011;24605;50.092;9.182;2023-07-13T04:34:41;4.68;;;1.48;;
38851;SDS011;24605;50.092;9.182;2023-07-13T04:37:07;4.65;;;1.10;;
38851;SDS011;24605;50.092;9.182;2023-07-13T04:39:34;3.22;;;1.05;;
38851;SDS011;24605;50.092;9.182;2023-07-13T04:42:00;3.83;;;1.10;;
38851;SDS011;24605;50.092;9.182;2023-07-13T04:44:27;4.05;;;1.25;;
38851;SDS011;24605;50.092;9.182;2023-07-13T04:46:55;5.32;;;1.13;;
38851;SDS011;24605;50.092;9.182;2023-07-13T04:49:21;2.95;;;1.00;;
38851;SDS011;24605;50.092;9.182;2023-07-13T04:51:48;4.68;;;1.02;;
38851;SDS011;24605;50.092;9.182;2023-07-13T04:54:14;3.80;;;1.10;;
38851;SDS011;24605;50.092;9.182;2023-07-13T04:56:41;5.75;;;1.30;;
38851;SDS011;24605;50.092;9.182;2023-07-13T04:59:07;6.57;;;1.10;;
38851;SDS011;24605;50.092;9.182;2023-07-13T05:01:34;4.88;;;1.25;;
38851;SDS011;24605;50.092;9.182;2023-07-13T05:04:02;2.85;;;1.13;;
38851;SDS011;24605;50.092;9.182;2023-07-13T05:06:28;2.50;;;1.05;;
38851;SDS011;24605;50.092;9.182;2023-07-13T05:08:55;4.40;;;1.35;;
38851;SDS011;24605;50.092;9.182;2023-07-13T05:11:22;5.63;;;1.38;;
38851;SDS011;24605;50.092;9.182;2023-07-13T05:13:48;5.18;;;1.20;;
38851;SDS011;24605;50.092;9.182;2023-07-13T05:16:15;5.25;;;1.30;;
38851;SDS011;24605;50.092;9.182;2023-07-13T05:18:41;8.02;;;1.65;;
38851;SDS011;24605;50.092;9.182;2023-07-13T05:21:10;4.63;;;1.02;;
38851;SDS011;24605;50.092;9.182;2023-07-13T05:23:37;6.45;;;1.33;;
38851;SDS011;24605;50.092;9.182;2023-07-13T05:26:06;4.22;;;1.17;;
38851;SDS011;24605;50.092;9.182;2023-07-13T05:28:33;5.63;;;1.20;;
38851;SDS011;24605;50.092;9.182;2023-07-13T05:31:00;5.13;;;1.30;;
38851;SDS011;24605;50.092;9.182;2023-07-13T05:33:27;4.88;;;1.25;;
38851;SDS011;24605;50.092;9.182;2023-07-13T05:35:53;4.38;;;1.00;;
38851;SDS011;24605;50.092;9.182;2023-07-13T05:38:21;6.60;;;1.02;;
38851;SDS011;24605;50.092;9.182;2023-07-13T05:40:48;5.75;;;1.30;;
38851;SDS011;24605;50.092;9.182;2023-07-13T05:43:15;8.40;;;1.13;;
38851;SDS011;24605;50.092;9.182;2023-07-13T05:45:42;6.43;;;1.40;;
38851;SDS011;24605;50.092;9.182;2023-07-13T05:48:08;7.10;;;1.20;;
38851;SDS011;24605;50.092;9.182;2023-07-13T05:50:35;5.13;;;1.17;;
38851;SDS011;24605;50.092;9.182;2023-07-13T05:53:01;4.80;;;1.02;;
38851;SDS011;24605;50.092;9.182;2023-07-13T05:55:29;9.10;;;1.50;;
38851;SDS011;24605;50.092;9.182;2023-07-13T05:57:55;6.25;;;1.10;;
38851;SDS011;24605;50.092;9.182;2023-07-13T06:00:23;3.70;;;1.00;;
38851;SDS011;24605;50.092;9.182;2023-07-13T06:02:49;5.28;;;1.25;;
38851;SDS011;24605;50.092;9.182;2023-07-13T06:05:16;8.60;;;1.30;;
38851;SDS011;24605;50.092;9.182;2023-07-13T06:07:43;7.18;;;1.25;;
38851;SDS011;24605;50.092;9.182;2023-07-13T06:10:09;5.50;;;1.30;;
38851;SDS011;24605;50.092;9.182;2023-07-13T06:12:38;5.30;;;1.15;;
38851;SDS011;24605;50.092;9.182;2023-07-13T06:15:05;4.65;;;1.40;;
38851;SDS011;24605;50.092;9.182;2023-07-13T06:17:32;3.70;;;1.13;;
38851;SDS011;24605;50.092;9.182;2023-07-13T06:19:59;5.60;;;1.35;;
38851;SDS011;24605;50.092;9.182;2023-07-13T06:22:25;4.03;;;1.00;;
38851;SDS011;24605;50.092;9.182;2023-07-13T06:24:52;8.68;;;1.30;;
38851;SDS011;24605;50.092;9.182;2023-07-13T06:27:18;5.50;;;1.40;;
38851;SDS011;24605;50.092;9.182;2023-07-13T06:29:46;4.30;;;1.33;;
38851;SDS011;24605;50.092;9.182;2023-07-13T06:32:13;4.20;;;1.20;;
38851;SDS011;24605;50.092;9.182;2023-07-13T06:34:39;4.40;;;1.33;;
38851;SDS011;24605;50.092;9.182;2023-07-13T06:37:06;4.85;;;1.42;;
38851;SDS011;24605;50.092;9.182;2023-07-13T06:39:32;4.57;;;1.10;;
38851;SDS011;24605;50.092;9.182;2023-07-13T06:41:59;6.28;;;0.98;;
38851;SDS011;24605;50.092;9.182;2023-07-13T06:44:25;3.33;;;1.05;;
38851;SDS011;24605;50.092;9.182;2023-07-13T06:46:53;3.53;;;1.20;;
38851;SDS011;24605;50.092;9.182;2023-07-13T06:49:19;3.67;;;1.00;;
38851;SDS011;24605;50.092;9.182;2023-07-13T06:51:46;4.38;;;1.10;;
38851;SDS011;24605;50.092;9.182;2023-07-13T06:54:13;4.82;;;1.00;;
38851;SDS011;24605;50.092;9.182;2023-07-13T06:56:39;5.57;;;1.20;;
38851;SDS011;24605;50.092;9.182;2023-07-13T06:59:05;3.25;;;1.00;;
38851;SDS011;24605;50.092;9.182;2023-07-13T07:01:32;4.95;;;1.10;;
38851;SDS011;24605;50.092;9.182;2023-07-13T07:04:00;2.75;;;0.90;;
38851;SDS011;24605;50.092;9.182;2023-07-13T07:06:26;6.72;;;1.48;;
38851;SDS011;24605;50.092;9.182;2023-07-13T07:08:52;3.38;;;0.82;;
38851;SDS011;24605;50.092;9.182;2023-07-13T07:11:20;6.65;;;1.17;;
38851;SDS011;24605;50.092;9.182;2023-07-13T07:13:48;5.43;;;1.40;;
38851;SDS011;24605;50.092;9.182;2023-07-13T07:16:15;3.67;;;1.00;;
38851;SDS011;24605;50.092;9.182;2023-07-13T07:18:42;5.45;;;1.17;;
38851;SDS011;24605;50.092;9.182;2023-07-13T07:21:10;9.02;;;1.50;;
38851;SDS011;24605;50.092;9.182;2023-07-13T07:23:36;4.75;;;1.30;;
38851;SDS011;24605;50.092;9.182;2023-07-13T07:26:03;4.68;;;1.10;;
38851;SDS011;24605;50.092;9.182;2023-07-13T07:28:29;3.92;;;1.05;;
38851;SDS011;24605;50.092;9.182;2023-07-13T07:30:56;6.43;;;1.00;;
38851;SDS011;24605;50.092;9.182;2023-07-13T07:33:24;4.93;;;1.40;;
38851;SDS011;24605;50.092;9.182;2023-07-13T07:35:51;4.10;;;1.08;;
38851;SDS011;24605;50.092;9.182;2023-07-13T07:38:19;3.80;;;1.40;;
38851;SDS011;24605;50.092;9.182;2023-07-13T07:40:46;3.60;;;1.20;;
38851;SDS011;24605;50.092;9.182;2023-07-13T07:43:13;3.83;;;1.33;;
38851;SDS011;24605;50.092;9.182;2023-07-13T07:45:39;5.93;;;1.15;;
38851;SDS011;24605;50.092;9.182;2023-07-13T07:48:06;6.05;;;1.50;;
38851;SDS011;24605;50.092;9.182;2023-07-13T07:50:34;5.07;;;1.40;;
38851;SDS011;24605;50.092;9.182;2023-07-13T07:53:01;5.05;;;1.20;;
38851;SDS011;24605;50.092;9.182;2023-07-13T07:55:29;4.57;;;1.25;;
38851;SDS011;24605;50.092;9.182;2023-07-13T07:57:56;4.38;;;1.17;;
38851;SDS011;24605;50.092;9.182;2023-07-13T08:00:23;4.05;;;0.88;;
38851;SDS011;24605;50.092;9.182;2023-07-13T08:02:49;4.38;;;0.95;;
38851;SDS011;24605;50.092;9.182;2023-07-13T08:05:16;5.03;;;1.00;;
38851;SDS011;24605;50.092;9.182;2023-07-13T08:07:43;3.60;;;0.98;;
38851;SDS011;24605;50.092;9.182;2023-07-13T08:10:09;3.67;;;0.68;;
38851;SDS011;24605;50.092;9.182;2023-07-13T08:12:37;3.80;;;0.90;;
38851;SDS011;24605;50.092;9.182;2023-07-13T08:15:05;6.28;;;1.05;;
38851;SDS011;24605;50.092;9.182;2023-07-13T08:17:35;4.18;;;0.85;;
38851;SDS011;24605;50.092;9.182;2023-07-13T08:20:01;5.88;;;1.10;;
38851;SDS011;24605;50.092;9.182;2023-07-13T08:22:29;5.75;;;1.00;;
38851;SDS011;24605;50.092;9.182;2023-07-13T08:24:55;5.22;;;1.10;;
38851;SDS011;24605;50.092;9.182;2023-07-13T08:27:22;4.50;;;0.88;;
38851;SDS011;24605;50.092;9.182;2023-07-13T08:29:50;4.70;;;1.20;;
38851;SDS011;24605;50.092;9.182;2023-07-13T08:32:17;4.97;;;1.05;;
38851;SDS011;24605;50.092;9.182;2023-07-13T08:34:43;4.47;;;0.93;;
38851;SDS011;24605;50.092;9.182;2023-07-13T08:37:10;5.57;;;1.10;;
38851;SDS011;24605;50.092;9.182;2023-07-13T08:39:37;2.85;;;1.05;;
38851;SDS011;24605;50.092;9.182;2023-07-13T08:42:04;4.22;;;0.95;;
38851;SDS011;24605;50.092;9.182;2023-07-13T08:44:57;3.55;;;1.13;;
38851;SDS011;24605;50.092;9.182;2023-07-13T08:47:35;14.32;;;1.30;;
38851;SDS011;24605;50.092;9.182;2023-07-13T08:50:08;4.55;;;1.00;;
38851;SDS011;24605;50.092;9.182;2023-07-13T08:52:40;5.00;;;0.95;;
38851;SDS011;24605;50.092;9.182;2023-07-13T08:55:11;6.93;;;1.33;;
38851;SDS011;24605;50.092;9.182;2023-07-13T08:57:41;5.13;;;1.10;;
38851;SDS011;24605;50.092;9.182;2023-07-13T09:00:11;5.45;;;1.00;;
38851;SDS011;24605;50.092;9.182;2023-07-13T09:02:42;6.55;;;1.00;;
38851;SDS011;24605;50.092;9.182;2023-07-13T09:05:12;4.82;;;0.90;;
38851;SDS011;24605;50.092;9.182;2023-07-13T09:07:46;4.03;;;0.85;;
38851;SDS011;24605;50.092;9.182;2023-07-13T09:10:23;5.30;;;1.17;;
38851;SDS011;24605;50.092;9.182;2023-07-13T09:12:57;3.40;;;1.20;;
38851;SDS011;24605;50.092;9.182;2023-07-13T09:15:35;4.63;;;0.93;;
38851;SDS011;24605;50.092;9.182;2023-07-13T09:18:08;5.45;;;1.00;;
38851;SDS011;24605;50.092;9.182;2023-07-13T09:20:39;6.28;;;1.30;;
38851;SDS011;24605;50.092;9.182;2023-07-13T09:23:11;4.07;;;1.00;;
38851;SDS011;24605;50.092;9.182;2023-07-13T09:25:43;4.18;;;1.20;;
38851;SDS011;24605;50.092;9.182;2023-07-13T09:28:14;4.70;;;1.10;;
38851;SDS011;24605;50.092;9.182;2023-07-13T09:30:46;5.15;;;1.50;;
38851;SDS011;24605;50.092;9.182;2023-07-13T09:33:18;3.92;;;0.93;;
38851;SDS011;24605;50.092;9.182;2023-07-13T09:35:45;6.47;;;1.42;;
38851;SDS011;24605;50.092;9.182;2023-07-13T09:38:12;4.72;;;0.82;;
38851;SDS011;24605;50.092;9.182;2023-07-13T09:40:43;3.88;;;0.90;;
38851;SDS011;24605;50.092;9.182;2023-07-13T09:43:15;4.07;;;1.02;;
38851;SDS011;24605;50.092;9.182;2023-07-13T09:45:46;2.72;;;0.85;;
38851;SDS011;24605;50.092;9.182;2023-07-13T09:48:14;3.95;;;1.10;;
38851;SDS011;24605;50.092;9.182;2023-07-13T09:50:41;5.35;;;1.52;;
38851;SDS011;24605;50.092;9.182;2023-07-13T09:53:12;4.72;;;1.02;;
38851;SDS011;24605;50.092;9.182;2023-07-13T09:55:40;3.58;;;0.77;;
38851;SDS011;24605;50.092;9.182;2023-07-13T09:58:09;4.05;;;0.98;;
38851;SDS011;24605;50.092;9.182;2023-07-13T10:00:38;5.68;;;1.27;;
38851;SDS011;24605;50.092;9.182;2023-07-13T10:03:16;4.70;;;1.00;;
38851;SDS011;24605;50.092;9.182;2023-07-13T10:05:45;6.63;;;1.23;;
38851;SDS011;24605;50.092;9.182;2023-07-13T10:08:16;6.38;;;1.15;;
38851;SDS011;24605;50.092;9.182;2023-07-13T10:10:45;3.88;;;1.00;;
38851;SDS011;24605;50.092;9.182;2023-07-13T10:13:24;4.07;;;0.95;;
38851;SDS011;24605;50.092;9.182;2023-07-13T10:15:54;3.53;;;0.90;;
38851;SDS011;24605;50.092;9.182;2023-07-13T10:18:22;3.20;;;0.80;;
38851;SDS011;24605;50.092;9.182;2023-07-13T10:20:50;4.57;;;1.10;;
38851;SDS011;24605;50.092;9.182;2023-07-13T10:23:21;4.18;;;0.85;;
38851;SDS011;24605;50.092;9.182;2023-07-13T10:25:53;4.03;;;0.90;;
38851;SDS011;24605;50.092;9.182;2023-07-13T10:28:25;14.43;;;1.20;;
38851;SDS011;24605;50.092;9.182;2023-07-13T10:30:55;3.75;;;1.00;;
38851;SDS011;24605;50.092;9.182;2023-07-13T10:33:26;3.03;;;0.77;;
38851;SDS011;24605;50.092;9.182;2023-07-13T10:36:00;3.88;;;1.00;;
38851;SDS011;24605;50.092;9.182;2023-07-13T10:38:32;4.13;;;1.00;;
38851;SDS011;24605;50.092;9.182;2023-07-13T10:41:01;4.00;;;0.93;;
38851;SDS011;24605;50.092;9.182;2023-07-13T10:43:31;4.28;;;0.82;;
38851;SDS011;24605;50.092;9.182;2023-07-13T10:46:02;4.88;;;1.10;;
38851;SDS011;24605;50.092;9.182;2023-07-13T10:48:34;2.75;;;0.60;;
38851;SDS011;24605;50.092;9.182;2023-07-13T10:51:02;3.05;;;0.80;;
38851;SDS011;24605;50.092;9.182;2023-07-13T10:53:33;3.47;;;1.08;;
38851;SDS011;24605;50.092;9.182;2023-07-13T10:56:02;2.35;;;0.68;;
38851;SDS011;24605;50.092;9.182;2023-07-13T10:58:34;3.58;;;0.77;;
38851;SDS011;24605;50.092;9.182;2023-07-13T11:01:07;2.45;;;0.80;;
38851;SDS011;24605;50.092;9.182;2023-07-13T11:03:38;2.85;;;0.80;;
38851;SDS011;24605;50.092;9.182;2023-07-13T11:06:28;3.53;;;0.85;;
38851;SDS011;24605;50.092;9.182;2023-07-13T11:11:44;1.92;;;0.70;;
38851;SDS011;24605;50.092;9.182;2023-07-13T11:14:25;3.60;;;1.05;;
38851;SDS011;24605;50.092;9.182;2023-07-13T11:16:54;2.28;;;0.80;;
38851;SDS011;24605;50.092;9.182;2023-07-13T11:19:37;2.63;;;0.82;;
38851;SDS011;24605;50.092;9.182;2023-07-13T11:22:11;3.05;;;0.63;;
38851;SDS011;24605;50.092;9.182;2023-07-13T11:24:59;4.65;;;0.82;;
38851;SDS011;24605;50.092;9.182;2023-07-13T11:27:37;3.80;;;1.00;;
38851;SDS011;24605;50.092;9.182;2023-07-13T11:30:08;3.00;;;0.75;;
38851;SDS011;24605;50.092;9.182;2023-07-13T11:33:10;5.60;;;1.17;;
38851;SDS011;24605;50.092;9.182;2023-07-13T11:35:43;2.00;;;0.77;;
38851;SDS011;24605;50.092;9.182;2023-07-13T11:38:16;3.55;;;0.95;;
38851;SDS011;24605;50.092;9.182;2023-07-13T11:40:45;2.95;;;0.82;;
38851;SDS011;24605;50.092;9.182;2023-07-13T11:43:13;3.35;;;0.88;;
38851;SDS011;24605;50.092;9.182;2023-07-13T11:45:41;3.60;;;1.05;;
38851;SDS011;24605;50.092;9.182;2023-07-13T11:48:18;3.20;;;0.90;;
38851;SDS011;24605;50.092;9.182;2023-07-13T11:50:53;2.10;;;0.82;;
38851;SDS011;24605;50.092;9.182;2023-07-13T11:53:24;2.28;;;0.80;;
38851;SDS011;24605;50.092;9.182;2023-07-13T11:55:53;3.95;;;1.08;;
38851;SDS011;24605;50.092;9.182;2023-07-13T11:58:21;3.33;;;0.90;;
38851;SDS011;24605;50.092;9.182;2023-07-13T12:00:50;4.55;;;0.75;;
38851;SDS011;24605;50.092;9.182;2023-07-13T12:03:20;2.72;;;0.82;;
38851;SDS011;24605;50.092;9.182;2023-07-13T12:05:57;2.90;;;0.90;;
38851;SDS011;24605;50.092;9.182;2023-07-13T12:08:26;3.90;;;1.02;;
38851;SDS011;24605;50.092;9.182;2023-07-13T12:10:59;2.42;;;0.77;;
38851;SDS011;24605;50.092;9.182;2023-07-13T12:13:34;2.15;;;0.73;;
38851;SDS011;24605;50.092;9.182;2023-07-13T12:16:02;1.98;;;0.80;;
38851;SDS011;24605;50.092;9.182;2023-07-13T12:18:34;5.57;;;1.00;;
38851;SDS011;24605;50.092;9.182;2023-07-13T12:21:02;3.22;;;0.90;;
38851;SDS011;24605;50.092;9.182;2023-07-13T12:23:30;2.85;;;0.93;;
38851;SDS011;24605;50.092;9.182;2023-07-13T12:25:59;3.88;;;1.20;;
38851;SDS011;24605;50.092;9.182;2023-07-13T12:28:32;6.72;;;0.90;;
38851;SDS011;24605;50.092;9.182;2023-07-13T12:31:03;2.88;;;0.82;;
38851;SDS011;24605;50.092;9.182;2023-07-13T12:33:45;4.03;;;0.90;;
38851;SDS011;24605;50.092;9.182;2023-07-13T12:36:13;4.55;;;1.00;;
38851;SDS011;24605;50.092;9.182;2023-07-13T12:38:39;2.25;;;0.73;;
38851;SDS011;24605;50.092;9.182;2023-07-13T12:41:07;2.97;;;0.93;;
38851;SDS011;24605;50.092;9.182;2023-07-13T12:43:36;3.05;;;1.00;;
38851;SDS011;24605;50.092;9.182;2023-07-13T12:46:04;2.47;;;0.90;;
38851;SDS011;24605;50.092;9.182;2023-07-13T12:48:41;2.15;;;0.90;;
38851;SDS011;24605;50.092;9.182;2023-07-13T12:51:10;3.42;;;1.02;;
38851;SDS011;24605;50.092;9.182;2023-07-13T12:53:40;3.55;;;1.15;;
38851;SDS011;24605;50.092;9.182;2023-07-13T12:56:08;1.52;;;0.75;;
38851;SDS011;24605;50.092;9.182;2023-07-13T12:58:44;2.80;;;0.93;;
38851;SDS011;24605;50.092;9.182;2023-07-13T13:01:19;3.45;;;0.95;;
38851;SDS011;24605;50.092;9.182;2023-07-13T13:03:48;3.08;;;1.15;;
38851;SDS011;24605;50.092;9.182;2023-07-13T13:06:21;3.80;;;0.80;;
38851;SDS011;24605;50.092;9.182;2023-07-13T13:08:58;4.57;;;0.95;;
38851;SDS011;24605;50.092;9.182;2023-07-13T13:11:27;4.72;;;1.00;;
38851;SDS011;24605;50.092;9.182;2023-07-13T13:13:55;3.05;;;0.82;;
38851;SDS011;24605;50.092;9.182;2023-07-13T13:16:23;2.70;;;0.90;;
38851;SDS011;24605;50.092;9.182;2023-07-13T13:18:56;2.95;;;1.02;;
38851;SDS011;24605;50.092;9.182;2023-07-13T13:21:28;2.53;;;1.08;;
38851;SDS011;24605;50.092;9.182;2023-07-13T13:23:57;3.10;;;0.90;;
38851;SDS011;24605;50.092;9.182;2023-07-13T13:26:24;2.53;;;0.90;;
38851;SDS011;24605;50.092;9.182;2023-07-13T13:28:51;2.58;;;1.25;;
38851;SDS011;24605;50.092;9.182;2023-07-13T13:31:17;6.30;;;2.55;;
38851;SDS011;24605;50.092;9.182;2023-07-13T13:33:44;7.03;;;3.30;;
38851;SDS011;24605;50.092;9.182;2023-07-13T13:36:13;5.32;;;2.80;;
38851;SDS011;24605;50.092;9.182;2023-07-13T13:38:43;7.07;;;3.65;;
38851;SDS011;24605;50.092;9.182;2023-07-13T13:41:10;4.85;;;2.63;;
38851;SDS011;24605;50.092;9.182;2023-07-13T13:43:38;7.53;;;2.53;;
38851;SDS011;24605;50.092;9.182;2023-07-13T13:46:10;8.85;;;3.33;;
38851;SDS011;24605;50.092;9.182;2023-07-13T13:48:40;7.43;;;2.00;;
38851;SDS011;24605;50.092;9.182;2023-07-13T13:51:11;5.35;;;1.80;;
38851;SDS011;24605;50.092;9.182;2023-07-13T13:53:40;5.60;;;2.45;;
38851;SDS011;24605;50.092;9.182;2023-07-13T13:56:08;8.63;;;2.30;;
38851;SDS011;24605;50.092;9.182;2023-07-13T13:58:35;12.25;;;4.60;;
38851;SDS011;24605;50.092;9.182;2023-07-13T14:01:02;11.10;;;4.88;;
38851;SDS011;24605;50.092;9.182;2023-07-13T14:03:31;10.25;;;4.13;;
38851;SDS011;24605;50.092;9.182;2023-07-13T14:05:57;9.60;;;2.95;;
38851;SDS011;24605;50.092;9.182;2023-07-13T14:08:23;8.70;;;2.78;;
38851;SDS011;24605;50.092;9.182;2023-07-13T14:10:53;5.82;;;1.35;;
38851;SDS011;24605;50.092;9.182;2023-07-13T14:13:24;2.58;;;0.98;;
38851;SDS011;24605;50.092;9.182;2023-07-13T14:15:53;4.15;;;1.23;;
38851;SDS011;24605;50.092;9.182;2023-07-13T14:18:20;8.65;;;1.30;;
38851;SDS011;24605;50.092;9.182;2023-07-13T14:20:47;4.93;;;1.20;;
38851;SDS011;24605;50.092;9.182;2023-07-13T14:23:15;3.88;;;1.00;;
38851;SDS011;24605;50.092;9.182;2023-07-13T14:25:43;3.92;;;1.10;;
38851;SDS011;24605;50.092;9.182;2023-07-13T14:28:17;3.63;;;1.00;;
38851;SDS011;24605;50.092;9.182;2023-07-13T14:30:46;3.25;;;1.05;;
38851;SDS011;24605;50.092;9.182;2023-07-13T14:33:12;3.92;;;1.02;;
38851;SDS011;24605;50.092;9.182;2023-07-13T14:35:39;3.25;;;1.00;;
38851;SDS011;24605;50.092;9.182;2023-07-13T14:38:07;4.60;;;1.10;;
38851;SDS011;24605;50.092;9.182;2023-07-13T14:40:37;2.15;;;0.80;;
38851;SDS011;24605;50.092;9.182;2023-07-13T14:43:04;4.95;;;0.98;;
38851;SDS011;24605;50.092;9.182;2023-07-13T14:45:34;3.85;;;1.20;;
38851;SDS011;24605;50.092;9.182;2023-07-13T14:48:08;3.10;;;0.93;;
38851;SDS011;24605;50.092;9.182;2023-07-13T14:50:39;4.60;;;1.20;;
38851;SDS011;24605;50.092;9.182;2023-07-13T14:53:08;3.40;;;0.90;;
38851;SDS011;24605;50.092;9.182;2023-07-13T14:55:35;3.72;;;1.05;;
38851;SDS011;24605;50.092;9.182;2023-07-13T14:58:02;4.80;;;0.95;;
38851;SDS011;24605;50.092;9.182;2023-07-13T15:00:28;4.70;;;0.90;;
38851;SDS011;24605;50.092;9.182;2023-07-13T15:02:57;4.65;;;1.10;;